Time;durP1;ratioP1;P1;durP2;ratioP2;P2;SDS_P1;SDS_P2;PMS_P1;PMS_P2;Temp;Humidity;BMP_temperature;BMP_pressure;BME280_temperature;BME280_humidity;BME280_pressure;Samples;Min_cycle;Max_cycle;Signal;HPM_P1;HPM_P2
2023/05/24 00:01:47;;;;;;;10.85;2.42;;;11.60;1.00;;;;;;5098636;28;20075;-71
2023/05/24 00:04:13;;;;;;;8.48;2.05;;;11.60;1.00;;;;;;5098580;28;20027;-72
2023/05/24 00:06:40;;;;;;;15.20;2.55;;;11.60;1.00;;;;;;5098423;28;20047;-71
2023/05/24 00:09:06;;;;;;;11.48;2.47;;;11.60;1.00;;;;;;5097692;28;20437;-71
2023/05/24 00:11:33;;;;;;;14.07;2.75;;;11.60;1.00;;;;;;5098365;28;20392;-71
2023/05/24 00:13:58;;;;;;;9.20;2.22;;;11.40;1.00;;;;;;5097621;28;20016;-71
2023/05/24 00:16:24;;;;;;;10.38;2.63;;;11.40;1.00;;;;;;5097743;28;20295;-72
2023/05/24 00:18:51;;;;;;;12.15;2.53;;;11.40;1.00;;;;;;5098188;28;20119;-71
2023/05/24 00:21:16;;;;;;;10.00;2.47;;;11.30;1.00;;;;;;5097642;28;20032;-71
2023/05/24 00:23:46;;;;;;;16.52;3.05;;;11.30;1.00;;;;;;5098103;28;20484;-71
2023/05/24 00:26:12;;;;;;;11.95;2.60;;;11.40;1.00;;;;;;5097278;28;20486;-71
2023/05/24 00:28:42;;;;;;;9.52;2.38;;;11.30;1.00;;;;;;5081011;28;20079;-71
2023/05/24 00:31:08;;;;;;;10.43;2.13;;;11.40;1.00;;;;;;5098138;28;20040;-71
2023/05/24 00:33:34;;;;;;;11.93;2.25;;;11.30;1.00;;;;;;5098162;28;20345;-71
2023/05/24 00:35:59;;;;;;;14.70;3.05;;;11.20;1.00;;;;;;5098138;28;20035;-72
2023/05/24 00:38:26;;;;;;;8.50;2.30;;;11.30;1.00;;;;;;5097959;28;20153;-71
2023/05/24 00:40:56;;;;;;;9.50;2.13;;;11.20;1.00;;;;;;5080213;28;20119;-70
2023/05/24 00:43:22;;;;;;;14.07;2.33;;;11.20;1.00;;;;;;5096991;28;20110;-71
2023/05/24 00:46:08;;;;;;;13.23;2.45;;;11.20;1.00;;;;;;5096882;28;20028;-71
2023/05/24 00:48:34;;;;;;;11.25;2.25;;;11.20;1.00;;;;;;5097654;28;20387;-71
2023/05/24 00:51:00;;;;;;;10.82;2.35;;;11.10;1.00;;;;;;5080089;28;20032;-71
2023/05/24 00:53:26;;;;;;;12.02;2.28;;;11.00;1.00;;;;;;5097213;28;20042;-71
2023/05/24 00:55:53;;;;;;;11.13;2.53;;;11.00;1.00;;;;;;5096806;28;20396;-72
2023/05/24 00:58:21;;;;;;;10.70;2.50;;;11.00;1.00;;;;;;5096648;28;20028;-71
2023/05/24 01:00:49;;;;;;;15.23;2.67;;;11.00;1.00;;;;;;5097537;28;20020;-71
2023/05/24 01:03:15;;;;;;;15.30;2.20;;;11.00;1.00;;;;;;5096625;28;20085;-72
2023/05/24 01:05:42;;;;;;;13.82;2.85;;;10.90;1.00;;;;;;5096614;28;20032;-71
2023/05/24 01:08:13;;;;;;;14.77;2.40;;;10.90;1.00;;;;;;5079763;28;20473;-70
2023/05/24 01:10:47;;;;;;;12.50;2.85;;;10.90;1.00;;;;;;5096510;28;20079;-71
2023/05/24 01:13:52;;;;;;;10.50;2.40;;;10.90;1.00;;;;;;5097413;28;20028;-70
2023/05/24 01:16:23;;;;;;;7.65;2.40;;;10.90;1.00;;;;;;5097349;28;20040;-70
2023/05/24 01:18:55;;;;;;;12.18;2.53;;;10.90;1.00;;;;;;5097306;28;20298;-71
2023/05/24 01:22:05;;;;;;;8.57;2.58;;;10.90;1.00;;;;;;5097243;28;20345;-70
2023/05/24 01:24:57;;;;;;;9.85;2.30;;;10.90;1.00;;;;;;5069805;28;20036;-71
2023/05/24 01:27:24;;;;;;;10.60;2.57;;;10.80;1.00;;;;;;5097151;28;20032;-71
2023/05/24 01:29:53;;;;;;;12.05;2.90;;;10.90;1.00;;;;;;5097100;28;20153;-70
2023/05/24 01:32:19;;;;;;;14.63;3.22;;;10.80;1.00;;;;;;5079950;28;20055;-71
2023/05/24 01:34:45;;;;;;;12.00;2.47;;;10.80;1.00;;;;;;5079516;28;20421;-71
2023/05/24 01:37:11;;;;;;;12.38;2.83;;;10.80;1.00;;;;;;5097017;28;20107;-71
2023/05/24 01:39:39;;;;;;;13.73;2.53;;;10.80;1.00;;;;;;5096987;28;20115;-71
2023/05/24 01:42:26;;;;;;;15.02;3.20;;;10.80;1.00;;;;;;5097117;28;20036;-71
2023/05/24 01:45:17;;;;;;;14.68;2.58;;;10.90;1.00;;;;;;5096958;28;20031;-71
2023/05/24 01:48:10;;;;;;;12.45;2.50;;;10.80;1.00;;;;;;5097408;28;20422;-71
2023/05/24 01:50:47;;;;;;;10.25;2.30;;;10.70;1.00;;;;;;5096216;28;20107;-71
2023/05/24 01:53:17;;;;;;;11.43;2.67;;;10.70;1.00;;;;;;5097054;28;20024;-72
2023/05/24 01:55:46;;;;;;;10.07;2.88;;;10.70;1.00;;;;;;5097870;28;20055;-71
2023/05/24 01:58:16;;;;;;;15.38;3.42;;;10.60;1.00;;;;;;5100593;28;20024;-71
2023/05/24 02:00:43;;;;;;;8.85;2.20;;;10.60;1.00;;;;;;5100191;28;20035;-71
2023/05/24 02:03:12;;;;;;;13.18;2.50;;;10.50;1.40;;;;;;5100786;28;20059;-71
2023/05/24 02:05:38;;;;;;;14.55;2.85;;;10.50;4.60;;;;;;5100800;28;20032;-71
2023/05/24 02:08:05;;;;;;;13.05;2.58;;;10.50;2.80;;;;;;5100602;28;20096;-71
2023/05/24 02:10:31;;;;;;;14.23;2.58;;;10.50;3.00;;;;;;5099844;28;20396;-71
2023/05/24 02:12:58;;;;;;;13.45;2.47;;;10.40;3.40;;;;;;5100539;28;20032;-71
2023/05/24 02:15:25;;;;;;;13.38;3.10;;;10.40;7.20;;;;;;5100620;28;20295;-71
2023/05/24 02:17:53;;;;;;;12.65;3.10;;;10.50;3.90;;;;;;5100724;28;20157;-71
2023/05/24 02:20:21;;;;;;;12.18;2.67;;;10.60;1.00;;;;;;5099700;28;20062;-71
2023/05/24 02:22:48;;;;;;;14.00;2.80;;;10.50;4.30;;;;;;5100329;28;20043;-71
2023/05/24 02:25:14;;;;;;;11.32;2.38;;;10.30;8.60;;;;;;5100352;28;20028;-71
2023/05/24 02:27:40;;;;;;;8.48;2.60;;;10.20;11.10;;;;;;5100409;28;20052;-71
2023/05/24 02:30:07;;;;;;;10.43;2.40;;;10.10;17.90;;;;;;5100309;28;20028;-71
2023/05/24 02:32:33;;;;;;;11.15;2.80;;;10.10;19.70;;;;;;5099496;28;20047;-71
2023/05/24 02:35:02;;;;;;;9.73;2.83;;;10.00;23.00;;;;;;5099948;28;20028;-71
2023/05/24 02:37:28;;;;;;;14.50;2.95;;;9.90;25.40;;;;;;5100388;28;20102;-71
2023/05/24 02:39:54;;;;;;;10.68;2.60;;;10.00;26.00;;;;;;5100093;28;20053;-71
2023/05/24 02:42:20;;;;;;;8.93;2.63;;;9.90;26.80;;;;;;5100072;28;20068;-73
2023/05/24 02:44:51;;;;;;;15.15;2.65;;;9.80;30.30;;;;;;5100239;28;20295;-71
2023/05/24 02:47:17;;;;;;;14.20;2.60;;;9.80;28.10;;;;;;5099975;28;20043;-71
2023/05/24 02:49:43;;;;;;;13.18;2.80;;;9.70;31.90;;;;;;5099186;28;20097;-71
2023/05/24 02:52:09;;;;;;;10.55;3.03;;;9.70;35.40;;;;;;5099859;28;20299;-71
2023/05/24 02:54:35;;;;;;;9.00;2.92;;;9.70;35.30;;;;;;5098993;28;20395;-71
2023/05/24 02:57:05;;;;;;;12.02;3.00;;;9.60;35.80;;;;;;5082414;28;20036;-71
2023/05/24 02:59:35;;;;;;;8.90;2.20;;;9.60;39.20;;;;;;5098899;28;20307;-71
2023/05/24 03:02:01;;;;;;;10.07;2.72;;;9.60;41.20;;;;;;5098775;28;20112;-71
2023/05/24 03:04:27;;;;;;;10.57;2.70;;;9.50;45.20;;;;;;5082160;28;20044;-71
2023/05/24 03:06:53;;;;;;;11.75;2.88;;;9.60;44.50;;;;;;5081963;28;20044;-71
2023/05/24 03:09:19;;;;;;;8.75;2.42;;;9.70;41.60;;;;;;5081692;28;20043;-71
2023/05/24 03:11:45;;;;;;;5.72;2.50;;;9.60;40.10;;;;;;5099492;28;20035;-71
2023/05/24 03:14:11;;;;;;;7.22;2.70;;;9.60;43.80;;;;;;5099441;28;20031;-71
2023/05/24 03:16:40;;;;;;;8.02;2.45;;;9.50;46.30;;;;;;5098903;28;20135;-71
2023/05/24 03:19:06;;;;;;;12.27;2.97;;;9.50;48.00;;;;;;5098632;28;20131;-71
2023/05/24 03:21:32;;;;;;;6.25;2.55;;;9.50;48.00;;;;;;5098735;28;20067;-72
2023/05/24 03:23:58;;;;;;;7.72;2.78;;;9.50;49.50;;;;;;5064988;28;20120;-71
2023/05/24 03:26:27;;;;;;;10.10;2.60;;;9.40;51.20;;;;;;5081637;28;20047;-71
2023/05/24 03:28:53;;;;;;;7.97;2.67;;;9.50;50.40;;;;;;5098453;28;20096;-71
2023/05/24 03:31:25;;;;;;;9.68;2.85;;;9.50;48.30;;;;;;5098537;28;20036;-70
2023/05/24 03:33:51;;;;;;;11.85;3.10;;;9.40;49.30;;;;;;5081738;28;20032;-71
2023/05/24 03:36:17;;;;;;;10.18;2.72;;;9.40;48.30;;;;;;5099127;28;20341;-71
2023/05/24 03:38:43;;;;;;;11.45;2.95;;;9.40;53.50;;;;;;5081536;28;20092;-71
2023/05/24 03:41:09;;;;;;;7.65;2.72;;;9.40;55.40;;;;;;5098381;28;20039;-71
2023/05/24 03:43:35;;;;;;;13.48;3.30;;;9.30;56.80;;;;;;5098979;28;20027;-71
2023/05/24 03:46:04;;;;;;;11.88;2.67;;;9.30;59.20;;;;;;5098312;28;20028;-71
2023/05/24 03:48:30;;;;;;;10.48;2.72;;;9.30;58.80;;;;;;5081317;28;20403;-71
2023/05/24 03:50:57;;;;;;;11.48;3.40;;;9.40;59.40;;;;;;5098020;28;20059;-70
2023/05/24 03:53:23;;;;;;;9.40;3.45;;;9.40;59.40;;;;;;5098739;28;20043;-70
2023/05/24 03:55:49;;;;;;;8.68;3.13;;;9.30;58.60;;;;;;5097956;28;20391;-70
2023/05/24 03:58:15;;;;;;;9.25;2.72;;;9.40;59.40;;;;;;5097735;28;20085;-70
2023/05/24 04:00:41;;;;;;;12.55;2.70;;;9.40;62.50;;;;;;5097575;28;20020;-71
2023/05/24 04:03:07;;;;;;;8.30;2.92;;;9.50;59.70;;;;;;5082733;28;20076;-71
2023/05/24 04:05:34;;;;;;;10.02;3.30;;;9.50;57.30;;;;;;5099159;28;20035;-70
2023/05/24 04:08:00;;;;;;;11.48;3.15;;;9.70;54.60;;;;;;5099523;28;20143;-71
2023/05/24 04:10:26;;;;;;;13.27;3.63;;;9.90;47.10;;;;;;5099480;28;20036;-71
2023/05/24 04:12:52;;;;;;;9.07;2.53;;;9.90;46.40;;;;;;5099663;28;20056;-71
2023/05/24 04:15:17;;;;;;;9.13;2.83;;;9.90;43.10;;;;;;5100007;28;20039;-71
2023/05/24 04:17:45;;;;;;;10.70;2.75;;;9.80;46.80;;;;;;5083035;28;20042;-70
2023/05/24 04:20:12;;;;;;;11.68;2.55;;;9.80;48.40;;;;;;5100238;28;20089;-71
2023/05/24 04:22:39;;;;;;;13.65;3.15;;;9.80;49.30;;;;;;5099474;28;20070;-70
2023/05/24 04:25:06;;;;;;;9.27;2.80;;;9.90;49.30;;;;;;5098941;28;20111;-70
2023/05/24 04:27:32;;;;;;;15.45;3.00;;;9.90;47.90;;;;;;5081749;28;20051;-71
2023/05/24 04:29:58;;;;;;;24.00;4.18;;;9.90;51.20;;;;;;5099513;28;20035;-71
2023/05/24 04:32:25;;;;;;;11.50;3.08;;;9.90;53.30;;;;;;5100054;28;20350;-71
2023/05/24 04:34:51;;;;;;;9.25;2.78;;;9.90;50.70;;;;;;5099082;28;20085;-69
2023/05/24 04:37:17;;;;;;;16.80;3.58;;;10.00;49.20;;;;;;5097989;28;20056;-71
2023/05/24 04:39:45;;;;;;;14.30;3.28;;;10.10;47.10;;;;;;5097823;28;20429;-71
2023/05/24 04:42:15;;;;;;;12.00;2.72;;;10.20;45.70;;;;;;5099110;28;20028;-71
2023/05/24 04:44:41;;;;;;;10.18;3.13;;;10.20;49.70;;;;;;5098684;28;20031;-71
2023/05/24 04:47:07;;;;;;;17.52;4.03;;;10.20;50.20;;;;;;5099258;28;20027;-71
2023/05/24 04:49:33;;;;;;;12.80;3.25;;;10.20;55.70;;;;;;5100113;28;20050;-70
2023/05/24 04:51:59;;;;;;;17.35;4.22;;;10.10;57.90;;;;;;5099737;28;20028;-71
2023/05/24 04:54:25;;;;;;;12.05;3.80;;;10.20;58.10;;;;;;5098492;28;20028;-72
2023/05/24 04:56:51;;;;;;;14.18;3.78;;;10.30;57.50;;;;;;5098065;28;20042;-69
2023/05/24 04:59:16;;;;;;;13.30;3.78;;;10.30;59.00;;;;;;5097678;28;20311;-69
2023/05/24 05:01:42;;;;;;;11.20;3.40;;;10.40;58.30;;;;;;5096852;28;20023;-70
2023/05/24 05:04:08;;;;;;;10.82;3.50;;;10.40;60.90;;;;;;5097556;28;20084;-70
2023/05/24 05:06:37;;;;;;;16.48;3.90;;;10.50;61.90;;;;;;5096403;28;20052;-72
2023/05/24 05:09:13;;;;;;;13.57;3.63;;;10.60;58.40;;;;;;5096703;28;20044;-70
2023/05/24 05:11:39;;;;;;;12.73;3.58;;;10.70;58.00;;;;;;5097861;28;20036;-70
2023/05/24 05:14:08;;;;;;;13.52;3.50;;;10.70;52.50;;;;;;5096583;28;20096;-68
2023/05/24 05:16:34;;;;;;;11.93;3.35;;;10.80;49.10;;;;;;5097122;28;20327;-70
2023/05/24 05:19:03;;;;;;;18.02;4.25;;;10.90;45.70;;;;;;5097383;28;20043;-68
2023/05/24 05:21:31;;;;;;;16.02;4.00;;;11.00;39.40;;;;;;5097408;28;20024;-69
2023/05/24 05:24:01;;;;;;;21.77;3.95;;;11.10;35.70;;;;;;5096482;28;20299;-69
2023/05/24 05:26:27;;;;;;;12.00;3.45;;;11.20;34.00;;;;;;5097130;28;20176;-69
2023/05/24 05:28:56;;;;;;;12.90;3.70;;;11.30;28.90;;;;;;5097181;28;20039;-69
2023/05/24 05:31:23;;;;;;;13.70;3.65;;;11.40;27.00;;;;;;5095800;28;20032;-70
2023/05/24 05:33:49;;;;;;;18.02;4.00;;;11.40;27.00;;;;;;5097067;28;20111;-70
2023/05/24 05:36:15;;;;;;;14.95;3.72;;;11.50;25.50;;;;;;5097063;28;20071;-70
2023/05/24 05:38:41;;;;;;;13.15;3.88;;;11.60;20.70;;;;;;5097051;28;20078;-69
2023/05/24 05:41:07;;;;;;;15.60;4.15;;;11.70;17.40;;;;;;5096883;28;20024;-69
2023/05/24 05:43:33;;;;;;;17.67;4.00;;;11.80;14.50;;;;;;5079600;28;20039;-69
2023/05/24 05:45:59;;;;;;;12.45;4.45;;;11.90;13.90;;;;;;5097456;28;20032;-70
2023/05/24 05:48:25;;;;;;;14.75;3.45;;;12.00;10.40;;;;;;5097834;28;20357;-70
2023/05/24 05:50:51;;;;;;;14.98;3.40;;;12.00;1.00;;;;;;5097041;28;20028;-70
2023/05/24 05:53:17;;;;;;;12.73;3.58;;;12.10;1.00;;;;;;5097094;28;20043;-70
2023/05/24 05:55:46;;;;;;;14.18;3.30;;;12.20;1.00;;;;;;5097182;28;20036;-73
2023/05/24 05:58:15;;;;;;;16.95;3.78;;;12.30;1.00;;;;;;5096310;28;20419;-70
2023/05/24 06:00:40;;;;;;;12.38;3.55;;;12.30;1.00;;;;;;5096784;28;20039;-71
2023/05/24 06:03:06;;;;;;;15.52;3.80;;;12.40;1.00;;;;;;5079340;28;20404;-71
2023/05/24 06:05:32;;;;;;;13.15;3.63;;;12.50;1.00;;;;;;5096199;28;20040;-70
2023/05/24 06:08:01;;;;;;;18.05;3.58;;;12.50;1.00;;;;;;5096769;28;20323;-69
2023/05/24 06:10:27;;;;;;;15.55;3.80;;;12.60;1.00;;;;;;5096727;28;20330;-71
2023/05/24 06:12:52;;;;;;;21.90;4.28;;;12.70;1.00;;;;;;5095893;28;20111;-71
2023/05/24 06:15:21;;;;;;;17.08;3.80;;;12.80;1.00;;;;;;5079596;28;20028;-73
2023/05/24 06:17:48;;;;;;;15.40;3.35;;;13.00;1.00;;;;;;5096530;28;20093;-70
2023/05/24 06:20:15;;;;;;;16.52;3.33;;;13.10;1.00;;;;;;5096728;28;20100;-72
2023/05/24 06:22:41;;;;;;;14.35;3.05;;;13.00;1.00;;;;;;5097060;28;20107;-72
2023/05/24 06:25:08;;;;;;;11.07;3.53;;;13.30;1.00;;;;;;5096736;28;20116;-74
2023/05/24 06:27:34;;;;;;;16.63;3.35;;;13.30;1.00;;;;;;5096732;28;20357;-73
2023/05/24 06:29:59;;;;;;;12.40;3.03;;;13.30;1.00;;;;;;5079803;28;20161;-73
2023/05/24 06:32:25;;;;;;;15.88;3.47;;;13.30;1.00;;;;;;5079373;28;20032;-69
2023/05/24 06:34:51;;;;;;;13.27;3.97;;;13.40;1.00;;;;;;5096502;28;20024;-73
2023/05/24 06:37:17;;;;;;;23.08;3.90;;;13.50;1.00;;;;;;5079085;28;20032;-73
2023/05/24 06:39:43;;;;;;;17.02;3.58;;;13.60;1.00;;;;;;5097278;28;20299;-74
2023/05/24 06:42:09;;;;;;;18.13;3.72;;;13.50;1.00;;;;;;5096595;28;20310;-74
2023/05/24 06:44:35;;;;;;;16.23;3.25;;;13.60;1.00;;;;;;5098239;28;20055;-73
2023/05/24 06:47:02;;;;;;;10.30;3.10;;;13.70;1.00;;;;;;5099566;28;20115;-73
2023/05/24 06:49:28;;;;;;;9.00;2.83;;;13.60;1.00;;;;;;5082862;28;20035;-73
2023/05/24 06:51:54;;;;;;;9.52;2.42;;;13.70;1.00;;;;;;5100135;28;20099;-73
2023/05/24 06:54:20;;;;;;;14.80;3.00;;;13.80;1.00;;;;;;5099994;28;20032;-74
2023/05/24 06:56:46;;;;;;;10.32;2.45;;;13.70;1.00;;;;;;5099704;28;20311;-72
2023/05/24 06:59:12;;;;;;;13.82;2.85;;;13.90;1.00;;;;;;5099068;28;20513;-73
2023/05/24 07:01:42;;;;;;;12.23;3.08;;;14.10;1.00;;;;;;5082294;28;20030;-70
2023/05/24 07:04:08;;;;;;;14.27;2.63;;;14.30;1.00;;;;;;5099744;28;20039;-71
2023/05/24 07:06:36;;;;;;;17.63;3.78;;;14.40;1.00;;;;;;5081803;28;20318;-66
2023/05/24 07:09:03;;;;;;;16.27;3.28;;;14.60;1.00;;;;;;5099136;28;20044;-74
2023/05/24 07:11:29;;;;;;;14.30;2.83;;;15.10;1.00;;;;;;5098992;28;20127;-73
2023/05/24 07:13:56;;;;;;;14.75;3.30;;;15.40;1.00;;;;;;5099176;28;20422;-69
2023/05/24 07:16:22;;;;;;;13.75;3.70;;;15.90;1.00;;;;;;5099469;28;20085;-73
2023/05/24 07:18:48;;;;;;;14.60;3.88;;;16.10;99.90;;;;;;5099273;28;20326;-68
2023/05/24 07:21:14;;;;;;;14.80;3.70;;;16.00;99.90;;;;;;5082284;28;20371;-73
2023/05/24 07:23:39;;;;;;;17.10;4.95;;;16.10;99.90;;;;;;5099039;28;20407;-73
2023/05/24 07:26:06;;;;;;;18.67;7.38;;;16.20;99.90;;;;;;5100003;28;20127;-73
2023/05/24 07:28:32;;;;;;;18.73;5.55;;;16.20;99.90;;;;;;5098959;28;20089;-71
2023/05/24 07:30:57;;;;;;;15.70;5.75;;;16.40;99.90;;;;;;5099422;28;20395;-73
2023/05/24 07:33:23;;;;;;;16.25;5.70;;;16.50;99.90;;;;;;5098474;28;20039;-72
2023/05/24 07:35:52;;;;;;;16.30;5.13;;;16.60;99.90;;;;;;5098784;28;20411;-73
2023/05/24 07:38:18;;;;;;;13.90;5.28;;;16.70;69.10;;;;;;5098941;28;20040;-74
2023/05/24 07:40:44;;;;;;;17.08;4.63;;;16.80;99.90;;;;;;5098774;28;20039;-74
2023/05/24 07:43:10;;;;;;;16.73;4.53;;;16.50;99.90;;;;;;5081438;28;20024;-74
2023/05/24 07:45:36;;;;;;;12.10;4.15;;;16.60;75.60;;;;;;5081273;28;20027;-74
2023/05/24 07:48:02;;;;;;;17.33;4.60;;;16.80;3.90;;;;;;5064914;28;20111;-74
2023/05/24 07:50:28;;;;;;;11.95;4.00;;;16.90;1.00;;;;;;5099039;28;20023;-73
2023/05/24 07:52:55;;;;;;;16.35;4.82;;;16.60;1.00;;;;;;5081411;28;20039;-72
2023/05/24 07:55:21;;;;;;;14.30;4.88;;;16.40;99.90;;;;;;5097753;28;20264;-71
2023/05/24 07:57:47;;;;;;;16.58;4.47;;;16.10;99.90;;;;;;5098265;28;20032;-72
2023/05/24 08:00:13;;;;;;;17.83;5.47;;;16.60;99.90;;;;;;5099111;28;20272;-72
2023/05/24 08:02:44;;;;;;;14.20;4.40;;;17.00;99.90;;;;;;5081782;28;20036;-73
2023/05/24 08:05:15;;;;;;;19.05;5.40;;;17.30;76.50;;;;;;5098329;28;20032;-70
2023/05/24 08:07:41;;;;;;;15.98;5.38;;;17.60;1.00;;;;;;5097619;28;20130;-68
2023/05/24 08:10:11;;;;;;;16.10;4.82;;;17.80;1.00;;;;;;5080946;28;20067;-73
2023/05/24 08:12:37;;;;;;;14.75;4.32;;;17.60;1.00;;;;;;5097781;28;20036;-72
2023/05/24 08:15:04;;;;;;;15.35;4.65;;;17.60;1.00;;;;;;5098204;28;20189;-72
2023/05/24 08:17:30;;;;;;;16.88;4.70;;;17.40;1.00;;;;;;5098692;28;20180;-71
2023/05/24 08:19:56;;;;;;;11.80;4.50;;;17.30;1.00;;;;;;5080483;28;20046;-72
2023/05/24 08:22:22;;;;;;;11.57;3.83;;;17.00;1.00;;;;;;5097256;28;20388;-72
2023/05/24 08:24:47;;;;;;;15.48;4.00;;;16.50;1.00;;;;;;5097894;28;20114;-72
2023/05/24 08:27:13;;;;;;;18.30;4.03;;;16.80;99.90;;;;;;5080495;28;20028;-69
2023/05/24 08:29:39;;;;;;;13.10;4.20;;;17.40;1.00;;;;;;5097436;28;20036;-73
2023/05/24 08:32:08;;;;;;;11.30;3.65;;;17.70;99.90;;;;;;5097181;28;20048;-72
2023/05/24 08:34:37;;;;;;;7.82;3.10;;;18.00;1.00;;;;;;5097429;28;20047;-73
2023/05/24 08:37:08;;;;;;;13.43;3.72;;;18.20;1.00;;;;;;5097254;28;20036;-71
2023/05/24 08:39:33;;;;;;;13.02;3.72;;;18.40;99.90;;;;;;5098017;28;20164;-70
2023/05/24 08:42:00;;;;;;;16.17;4.75;;;18.40;1.00;;;;;;5097083;28;20050;-68
2023/05/24 08:44:28;;;;;;;14.75;3.53;;;18.30;1.00;;;;;;5098050;28;20093;-71
2023/05/24 08:46:55;;;;;;;14.43;3.70;;;18.50;99.90;;;;;;5080303;28;20067;-71
2023/05/24 08:49:20;;;;;;;10.05;3.65;;;18.60;1.00;;;;;;5097663;28;20107;-69
2023/05/24 08:51:47;;;;;;;14.32;4.57;;;18.50;99.90;;;;;;5096954;28;20357;-71
2023/05/24 08:54:14;;;;;;;10.15;3.80;;;18.00;1.00;;;;;;5096955;28;20055;-71
2023/05/24 08:56:40;;;;;;;15.95;3.85;;;17.40;1.00;;;;;;5097408;28;20028;-69
2023/05/24 08:59:07;;;;;;;12.02;4.55;;;17.40;1.00;;;;;;5079935;28;20028;-70
2023/05/24 09:01:37;;;;;;;13.35;3.97;;;17.80;1.00;;;;;;5096801;28;20035;-69
2023/05/24 09:04:05;;;;;;;18.33;3.78;;;17.70;99.90;;;;;;5097589;28;20174;-72
2023/05/24 09:06:31;;;;;;;10.82;3.08;;;17.90;1.00;;;;;;5097199;28;20384;-73
2023/05/24 09:09:02;;;;;;;14.18;3.40;;;18.20;1.00;;;;;;5097273;28;20032;-72
2023/05/24 09:11:30;;;;;;;12.27;2.95;;;18.10;99.90;;;;;;5098623;28;20257;-72
2023/05/24 09:13:57;;;;;;;12.35;3.55;;;18.10;1.00;;;;;;5097211;28;20103;-73
2023/05/24 09:16:23;;;;;;;17.02;3.30;;;18.00;1.00;;;;;;5097289;28;20085;-69
2023/05/24 09:18:49;;;;;;;17.33;3.75;;;18.00;99.90;;;;;;5079483;28;20067;-71
2023/05/24 09:21:14;;;;;;;13.13;3.38;;;17.90;99.90;;;;;;5079719;28;20157;-70
2023/05/24 09:23:40;;;;;;;15.30;3.60;;;18.40;1.00;;;;;;5096414;28;20097;-72
2023/05/24 09:26:08;;;;;;;11.68;3.67;;;18.60;1.00;;;;;;5097700;28;20032;-72
2023/05/24 09:28:34;;;;;;;12.40;3.47;;;17.90;18.90;;;;;;5097653;28;20063;-69
2023/05/24 09:31:02;;;;;;;11.95;3.35;;;18.10;1.00;;;;;;5099492;28;20052;-72
2023/05/24 09:33:30;;;;;;;15.10;3.70;;;18.30;88.30;;;;;;5097759;28;20119;-76
2023/05/24 09:35:58;;;;;;;12.18;3.47;;;18.60;1.00;;;;;;5079702;28;20357;-78
2023/05/24 09:38:27;;;;;;;12.60;3.67;;;19.00;1.00;;;;;;5097375;28;20024;-72
2023/05/24 09:41:07;;;;;;;10.38;3.60;;;18.90;99.90;;;;;;5098117;28;20048;-74
2023/05/24 09:43:45;;;;;;;10.75;2.97;;;19.00;1.00;;;;;;5097360;28;20124;-73
2023/05/24 09:46:16;;;;;;;12.57;3.28;;;19.40;1.00;;;;;;5097675;28;20032;-71
2023/05/24 09:48:55;;;;;;;11.88;3.10;;;19.40;1.00;;;;;;5098066;28;20277;-74
2023/05/24 09:51:22;;;;;;;9.73;2.75;;;19.80;1.00;;;;;;5097816;28;20036;-77
2023/05/24 09:53:51;;;;;;;9.98;2.80;;;19.70;1.00;;;;;;5097022;28;20028;-72
2023/05/24 09:56:17;;;;;;;10.10;3.15;;;19.90;1.00;;;;;;5096268;28;20035;-79
2023/05/24 09:58:44;;;;;;;9.05;3.10;;;19.90;1.00;;;;;;5096552;28;20067;-78
2023/05/24 10:01:12;;;;;;;12.10;3.00;;;19.50;90.80;;;;;;5097775;28;20301;-78
2023/05/24 10:03:38;;;;;;;11.52;2.88;;;19.60;1.00;;;;;;5080382;28;20032;-76
2023/05/24 10:06:06;;;;;;;7.57;2.47;;;19.70;99.90;;;;;;5096684;28;20025;-77
2023/05/24 10:08:35;;;;;;;8.60;2.95;;;19.80;99.90;;;;;;5096653;28;20039;-74
2023/05/24 10:11:05;;;;;;;12.20;3.65;;;20.10;1.00;;;;;;5096580;28;20036;-74
2023/05/24 10:13:34;;;;;;;12.25;3.80;;;20.00;10.70;;;;;;5096672;28;20058;-71
2023/05/24 10:16:00;;;;;;;6.97;3.28;;;20.40;1.00;;;;;;5097779;28;20107;-76
2023/05/24 10:18:26;;;;;;;9.23;2.83;;;20.50;1.00;;;;;;5098277;28;20128;-79
2023/05/24 10:20:54;;;;;;;13.10;3.85;;;20.60;1.00;;;;;;5101091;28;20056;-68
2023/05/24 10:23:21;;;;;;;13.70;4.32;;;21.10;1.00;;;;;;5102038;28;20032;-70
2023/05/24 10:26:07;;;;;;;14.95;4.57;;;21.50;99.90;;;;;;5101500;28;20039;-70
2023/05/24 10:28:43;;;;;;;12.30;4.00;;;21.50;99.90;;;;;;5102301;28;20492;-73
2023/05/24 10:31:13;;;;;;;11.23;3.75;;;21.60;1.00;;;;;;5084189;28;20291;-67
2023/05/24 10:33:45;;;;;;;12.40;3.08;;;21.60;1.00;;;;;;5101078;28;20036;-68
2023/05/24 10:36:14;;;;;;;10.35;3.75;;;20.90;1.00;;;;;;5100449;28;20073;-71
2023/05/24 10:38:40;;;;;;;9.20;3.28;;;20.00;58.20;;;;;;5100203;28;20411;-73
2023/05/24 10:41:07;;;;;;;14.93;3.55;;;20.10;99.90;;;;;;5100729;28;20030;-69
2023/05/24 10:43:37;;;;;;;13.57;4.15;;;20.50;99.90;;;;;;5099795;28;20089;-71
2023/05/24 10:46:03;;;;;;;11.23;4.07;;;20.10;1.00;;;;;;5100844;28;20020;-76
2023/05/24 10:48:35;;;;;;;11.00;3.63;;;20.00;1.00;;;;;;5100531;28;20032;-71
2023/05/24 10:51:33;;;;;;;12.55;3.95;;;20.10;1.00;;;;;;5100547;28;20115;-70
2023/05/24 10:54:16;;;;;;;9.05;3.65;;;20.20;1.00;;;;;;5100605;28;20036;-71
2023/05/24 10:56:49;;;;;;;12.05;3.65;;;20.50;1.00;;;;;;5099596;28;20088;-75
2023/05/24 10:59:36;;;;;;;11.40;3.88;;;20.50;1.00;;;;;;5099815;28;20050;-68
2023/05/24 11:02:13;;;;;;;10.30;3.85;;;21.10;99.90;;;;;;5085579;28;20307;-71
2023/05/24 11:04:45;;;;;;;9.27;3.30;;;20.70;1.00;;;;;;5100453;28;20020;-73
2023/05/24 11:07:13;;;;;;;9.43;3.05;;;20.90;99.90;;;;;;5081888;28;20063;-69
2023/05/24 11:09:45;;;;;;;8.88;2.88;;;21.00;99.90;;;;;;5099264;28;20046;-75
2023/05/24 11:12:16;;;;;;;10.70;3.40;;;21.10;99.90;;;;;;5100337;28;20165;-72
2023/05/24 11:14:48;;;;;;;7.32;3.08;;;21.40;99.90;;;;;;5099745;28;20095;-75
2023/05/24 11:17:15;;;;;;;9.35;3.65;;;21.30;1.00;;;;;;5100059;28;20024;-74
2023/05/24 11:19:50;;;;;;;11.13;3.50;;;20.90;1.00;;;;;;5082105;28;20304;-74
2023/05/24 11:22:18;;;;;;;9.98;3.20;;;20.90;99.90;;;;;;5099909;28;20038;-75
2023/05/24 11:24:45;;;;;;;8.68;2.92;;;21.20;99.90;;;;;;5100928;28;20012;-74
2023/05/24 11:27:13;;;;;;;8.23;3.58;;;21.50;99.90;;;;;;5100425;28;20097;-75
2023/05/24 11:29:46;;;;;;;8.38;3.40;;;21.90;1.00;;;;;;5099727;28;20032;-69
2023/05/24 11:32:17;;;;;;;12.23;3.17;;;21.80;1.00;;;;;;5099743;28;20024;-73
2023/05/24 11:34:47;;;;;;;8.23;2.88;;;22.00;1.00;;;;;;5098568;28;20119;-74
2023/05/24 11:37:14;;;;;;;12.05;3.50;;;21.90;1.00;;;;;;5099358;28;20060;-74
2023/05/24 11:39:40;;;;;;;13.30;3.40;;;22.20;1.00;;;;;;5099902;28;20081;-76
2023/05/24 11:42:07;;;;;;;8.98;3.90;;;22.50;1.00;;;;;;5082250;28;20307;-71
2023/05/24 11:44:38;;;;;;;11.43;3.95;;;22.40;1.00;;;;;;5099606;28;20028;-72
2023/05/24 11:47:05;;;;;;;9.70;3.92;;;22.40;1.00;;;;;;5099803;28;20039;-71
2023/05/24 11:49:31;;;;;;;8.77;3.83;;;22.10;1.00;;;;;;5099984;28;20124;-75
2023/05/24 11:51:58;;;;;;;10.00;3.38;;;20.40;1.00;;;;;;5082029;28;20073;-71
2023/05/24 11:54:25;;;;;;;9.80;3.70;;;20.40;1.00;;;;;;5099292;28;20417;-71
2023/05/24 11:56:53;;;;;;;12.00;3.38;;;21.20;1.00;;;;;;5082211;28;20130;-68
2023/05/24 11:59:24;;;;;;;7.07;2.70;;;22.00;1.00;;;;;;5099166;28;20039;-71
2023/05/24 12:01:57;;;;;;;8.63;3.72;;;22.20;1.00;;;;;;5098839;28;20034;-73
2023/05/24 12:04:23;;;;;;;9.52;3.20;;;22.00;1.00;;;;;;5098006;28;20044;-73
2023/05/24 12:06:49;;;;;;;10.65;3.58;;;22.30;1.00;;;;;;5099210;28;20097;-72
2023/05/24 12:09:16;;;;;;;13.50;3.90;;;22.40;1.00;;;;;;5098843;28;20132;-72
2023/05/24 12:11:47;;;;;;;12.05;3.88;;;22.90;99.90;;;;;;5098811;28;20046;-71
2023/05/24 12:14:14;;;;;;;11.65;4.25;;;22.80;99.90;;;;;;5098809;28;20028;-67
2023/05/24 12:16:44;;;;;;;10.23;3.53;;;23.70;99.90;;;;;;5081230;28;20036;-73
2023/05/24 12:19:21;;;;;;;10.02;3.63;;;24.40;1.00;;;;;;5099255;28;20054;-75
2023/05/24 12:21:48;;;;;;;9.85;3.08;;;24.70;1.00;;;;;;5081756;28;20416;-73
2023/05/24 12:24:17;;;;;;;8.90;3.35;;;24.40;1.00;;;;;;5097608;28;20028;-75
2023/05/24 12:26:46;;;;;;;7.57;3.30;;;24.10;1.00;;;;;;5099180;28;20067;-77
2023/05/24 12:29:13;;;;;;;8.73;2.90;;;22.80;1.00;;;;;;5098816;28;20288;-73
2023/05/24 12:31:48;;;;;;;7.97;3.00;;;23.10;1.00;;;;;;5098766;28;20028;-73
2023/05/24 12:34:19;;;;;;;10.23;3.80;;;24.40;1.00;;;;;;5097998;28;20410;-72
2023/05/24 12:36:46;;;;;;;9.73;3.25;;;24.70;1.00;;;;;;5099008;28;20032;-73
2023/05/24 12:39:20;;;;;;;13.10;3.60;;;24.10;1.00;;;;;;5098421;28;20028;-71
2023/05/24 12:41:54;;;;;;;14.23;3.42;;;23.50;1.00;;;;;;5097937;28;20087;-72
2023/05/24 12:44:24;;;;;;;6.65;2.72;;;23.10;1.00;;;;;;5098580;28;20391;-72
2023/05/24 12:46:52;;;;;;;11.68;2.97;;;22.60;1.00;;;;;;5081677;28;20024;-72
2023/05/24 12:49:17;;;;;;;7.65;2.70;;;22.40;1.00;;;;;;5081283;28;20417;-69
2023/05/24 12:51:43;;;;;;;9.48;3.22;;;22.20;1.00;;;;;;5081251;28;20111;-81